Carp Lake, MI (49718)

3:57 PM EST on January 26, 2015 (GMT -0500)
Creekside, 4 Miles WSW Bliss | Change Station
CLOSE
Current Station
Personal Weather Station
Location: Bliss Township, MI
Elevation: 708 ft
Nearby Weather Stations

Elev 708 ft 45.65 °N, 84.92 °W | Updated 3 seconds ago

Overcast
Overcast
20.3 °F
Feels Like 12 °F
N
6.0
Wind Variable Wind from ENE
Gusts 12.0 mph

Today
High -- | Low -- °F
--% Chance of Precip.
Yesterday
High -- | Low -- °F
Precip. -- in
8:07 AM 5:36 PM
Waxing Crescent, 46% visible
Pressure 30.01 in
Visibility 10.0 miles
Clouds Overcast 8500 ft
Windchill 12 °F
Dew Point 10 °F
Humidity 65%
Rainfall 0.00 in
Snow Depth Not available.
UV 0 out of 12
Pollen .10 out of 12
Air Quality Not available.
Flu Activity Not available.
METAR KPLN 261954Z AUTO 12010KT 10SM OVC085 M06/M13 A2995 RMK AO2 SLP161 T10611128

More Conditions Fewer Conditions

Pressure 30.01 in
Visibility 10.0 miles
Clouds Overcast 8500 ft
Windchill 12 °F
Dew Point 10 °F
Humidity 65%
Rainfall 0.00 in
Snow Depth Not available.
UV 0 out of 12
Pollen .10 out of 12
Air Quality Not available.
Flu Activity Not available.
METAR KPLN 261954Z AUTO 12010KT 10SM OVC085 M06/M13 A2995 RMK AO2 SLP161 T10611128

More Conditions Fewer Conditions

Nowcast | as of 3:00 PM EST on January 26, 2015

At 4 PM...partly cloudy. Temperature 22. East winds 8 mph. At 6 PM...partly cloudy. Temperature 19. East winds 6 mph. At 8 PM...partly cloudy. Temperature 18. East winds 6 mph. At 10 PM...partly cloudy. Temperature 17. East winds 6 mph.

×

10-Day Weather Forecast

Almanac

Astronomy

Jan. 26, 2015 Rise Set
Actual Time
Civil Twilight
Nautical Twilight
Astronomical Twilight
Moon
Length of Visible Light
Length of Day
Tomorrow will be .
, % of the Moon is Illuminated

Today's Extremes

State Highs State Lows

Community

WunderPhotos

Upload Photos

1,790,351 photos uploaded!

WunderBlogs® & News

Nearby

Air Quality

  Air Quality AQ Index Pollutant
Not available.

Snow Depth

Station Depth Elevation

Earthquake Activity

City Distance Mag. Time & Date
Minimum magnitude displayed is 2.5.

Coastal Water Temperatures

Place Temperature

Nearby Weather Stations